sensor_id;sensor_type;location;lat;lon;timestamp;P1;durP1;ratioP1;P2;durP2;ratioP2
70132;SDS011;57495;49.922;7.966;2024-01-06T00:01:03;7.85;;;1.52;;
70132;SDS011;57495;49.922;7.966;2024-01-06T00:03:05;8.07;;;1.83;;
70132;SDS011;57495;49.922;7.966;2024-01-06T00:05:08;7.07;;;1.80;;
70132;SDS011;57495;49.922;7.966;2024-01-06T00:07:09;5.78;;;1.70;;
70132;SDS011;57495;49.922;7.966;2024-01-06T00:09:11;7.47;;;1.80;;
70132;SDS011;57495;49.922;7.966;2024-01-06T00:11:12;7.05;;;1.80;;
70132;SDS011;57495;49.922;7.966;2024-01-06T00:13:13;6.47;;;1.77;;
70132;SDS011;57495;49.922;7.966;2024-01-06T00:15:15;8.27;;;1.60;;
70132;SDS011;57495;49.922;7.966;2024-01-06T00:17:16;6.20;;;1.45;;
70132;SDS011;57495;49.922;7.966;2024-01-06T00:19:17;7.13;;;1.60;;
70132;SDS011;57495;49.922;7.966;2024-01-06T00:21:20;7.95;;;1.33;;
70132;SDS011;57495;49.922;7.966;2024-01-06T00:23:22;7.03;;;1.42;;
70132;SDS011;57495;49.922;7.966;2024-01-06T00:25:23;8.23;;;1.30;;
70132;SDS011;57495;49.922;7.966;2024-01-06T00:27:24;5.82;;;1.33;;
70132;SDS011;57495;49.922;7.966;2024-01-06T00:29:26;6.93;;;1.10;;
70132;SDS011;57495;49.922;7.966;2024-01-06T00:31:27;5.35;;;1.48;;
70132;SDS011;57495;49.922;7.966;2024-01-06T00:33:29;9.57;;;1.40;;
70132;SDS011;57495;49.922;7.966;2024-01-06T00:35:29;5.40;;;1.40;;
70132;SDS011;57495;49.922;7.966;2024-01-06T00:37:32;7.55;;;1.52;;
70132;SDS011;57495;49.922;7.966;2024-01-06T00:39:34;4.85;;;0.95;;
70132;SDS011;57495;49.922;7.966;2024-01-06T00:41:35;4.13;;;0.90;;
70132;SDS011;57495;49.922;7.966;2024-01-06T00:43:36;7.03;;;1.03;;
70132;SDS011;57495;49.922;7.966;2024-01-06T00:45:38;3.22;;;0.93;;
70132;SDS011;57495;49.922;7.966;2024-01-06T00:47:39;7.85;;;1.25;;
70132;SDS011;57495;49.922;7.966;2024-01-06T00:49:41;6.30;;;1.00;;
70132;SDS011;57495;49.922;7.966;2024-01-06T00:51:42;3.47;;;1.20;;
70132;SDS011;57495;49.922;7.966;2024-01-06T00:53:45;5.30;;;0.93;;
70132;SDS011;57495;49.922;7.966;2024-01-06T00:55:47;6.47;;;0.90;;
70132;SDS011;57495;49.922;7.966;2024-01-06T00:57:48;6.47;;;0.80;;
70132;SDS011;57495;49.922;7.966;2024-01-06T00:59:49;5.28;;;0.98;;
70132;SDS011;57495;49.922;7.966;2024-01-06T01:01:51;6.93;;;0.93;;
70132;SDS011;57495;49.922;7.966;2024-01-06T01:03:53;6.20;;;0.80;;
70132;SDS011;57495;49.922;7.966;2024-01-06T01:05:54;4.38;;;0.82;;
70132;SDS011;57495;49.922;7.966;2024-01-06T01:07:55;7.13;;;1.17;;
70132;SDS011;57495;49.922;7.966;2024-01-06T01:09:58;4.95;;;0.95;;
70132;SDS011;57495;49.922;7.966;2024-01-06T01:12:00;4.80;;;0.50;;
70132;SDS011;57495;49.922;7.966;2024-01-06T01:14:01;4.93;;;0.95;;
70132;SDS011;57495;49.922;7.966;2024-01-06T01:16:02;6.55;;;0.90;;
70132;SDS011;57495;49.922;7.966;2024-01-06T01:18:04;6.30;;;0.97;;
70132;SDS011;57495;49.922;7.966;2024-01-06T01:20:06;4.32;;;0.85;;
70132;SDS011;57495;49.922;7.966;2024-01-06T01:22:08;3.00;;;0.52;;
70132;SDS011;57495;49.922;7.966;2024-01-06T01:24:09;3.50;;;0.70;;
70132;SDS011;57495;49.922;7.966;2024-01-06T01:26:12;8.77;;;0.82;;
70132;SDS011;57495;49.922;7.966;2024-01-06T01:28:14;3.70;;;0.67;;
70132;SDS011;57495;49.922;7.966;2024-01-06T01:30:14;2.70;;;0.50;;
70132;SDS011;57495;49.922;7.966;2024-01-06T01:32:16;5.07;;;0.65;;
70132;SDS011;57495;49.922;7.966;2024-01-06T01:34:17;4.82;;;0.85;;
70132;SDS011;57495;49.922;7.966;2024-01-06T01:36:19;4.18;;;1.00;;
70132;SDS011;57495;49.922;7.966;2024-01-06T01:38:20;4.90;;;1.05;;
70132;SDS011;57495;49.922;7.966;2024-01-06T01:40:22;5.00;;;0.75;;
70132;SDS011;57495;49.922;7.966;2024-01-06T01:42:25;5.22;;;0.90;;
70132;SDS011;57495;49.922;7.966;2024-01-06T01:44:26;5.03;;;1.20;;
70132;SDS011;57495;49.922;7.966;2024-01-06T01:46:28;4.95;;;1.25;;
70132;SDS011;57495;49.922;7.966;2024-01-06T01:48:30;7.45;;;0.90;;
70132;SDS011;57495;49.922;7.966;2024-01-06T01:50:33;5.78;;;0.70;;
70132;SDS011;57495;49.922;7.966;2024-01-06T01:52:35;4.68;;;1.15;;
70132;SDS011;57495;49.922;7.966;2024-01-06T01:54:36;4.68;;;0.98;;
70132;SDS011;57495;49.922;7.966;2024-01-06T01:56:38;3.00;;;0.63;;
70132;SDS011;57495;49.922;7.966;2024-01-06T01:58:42;6.03;;;0.98;;
70132;SDS011;57495;49.922;7.966;2024-01-06T02:00:44;4.03;;;1.13;;
70132;SDS011;57495;49.922;7.966;2024-01-06T02:02:44;4.23;;;0.77;;
70132;SDS011;57495;49.922;7.966;2024-01-06T02:04:46;3.60;;;0.75;;
70132;SDS011;57495;49.922;7.966;2024-01-06T02:06:48;8.05;;;1.00;;
70132;SDS011;57495;49.922;7.966;2024-01-06T02:08:49;4.30;;;1.15;;
70132;SDS011;57495;49.922;7.966;2024-01-06T02:10:51;6.00;;;0.82;;
70132;SDS011;57495;49.922;7.966;2024-01-06T02:12:55;5.18;;;1.17;;
70132;SDS011;57495;49.922;7.966;2024-01-06T02:14:58;4.10;;;0.77;;
70132;SDS011;57495;49.922;7.966;2024-01-06T02:16:59;5.60;;;0.90;;
70132;SDS011;57495;49.922;7.966;2024-01-06T02:19:01;5.72;;;0.90;;
70132;SDS011;57495;49.922;7.966;2024-01-06T02:21:03;4.15;;;0.95;;
70132;SDS011;57495;49.922;7.966;2024-01-06T02:23:08;5.50;;;1.00;;
70132;SDS011;57495;49.922;7.966;2024-01-06T02:25:10;9.32;;;1.08;;
70132;SDS011;57495;49.922;7.966;2024-01-06T02:27:12;6.75;;;1.10;;
70132;SDS011;57495;49.922;7.966;2024-01-06T02:29:15;5.22;;;0.90;;
70132;SDS011;57495;49.922;7.966;2024-01-06T02:31:16;5.63;;;1.15;;
70132;SDS011;57495;49.922;7.966;2024-01-06T02:33:18;5.32;;;1.23;;
70132;SDS011;57495;49.922;7.966;2024-01-06T02:35:20;5.65;;;1.20;;
70132;SDS011;57495;49.922;7.966;2024-01-06T02:37:21;6.07;;;1.40;;
70132;SDS011;57495;49.922;7.966;2024-01-06T02:39:24;5.30;;;1.30;;
70132;SDS011;57495;49.922;7.966;2024-01-06T02:41:25;4.38;;;0.93;;
70132;SDS011;57495;49.922;7.966;2024-01-06T02:43:26;5.72;;;0.98;;
70132;SDS011;57495;49.922;7.966;2024-01-06T02:45:27;5.80;;;1.35;;
70132;SDS011;57495;49.922;7.966;2024-01-06T02:47:29;4.63;;;1.45;;
70132;SDS011;57495;49.922;7.966;2024-01-06T02:49:29;5.90;;;0.90;;
70132;SDS011;57495;49.922;7.966;2024-01-06T02:51:31;5.78;;;1.30;;
70132;SDS011;57495;49.922;7.966;2024-01-06T02:53:32;5.78;;;0.77;;
70132;SDS011;57495;49.922;7.966;2024-01-06T02:55:35;5.72;;;1.00;;
70132;SDS011;57495;49.922;7.966;2024-01-06T02:57:37;6.45;;;1.17;;
70132;SDS011;57495;49.922;7.966;2024-01-06T02:59:38;4.90;;;0.90;;
70132;SDS011;57495;49.922;7.966;2024-01-06T03:01:40;4.63;;;1.10;;
70132;SDS011;57495;49.922;7.966;2024-01-06T03:03:41;5.43;;;1.27;;
70132;SDS011;57495;49.922;7.966;2024-01-06T03:05:42;4.43;;;0.85;;
70132;SDS011;57495;49.922;7.966;2024-01-06T03:07:43;7.13;;;1.00;;
70132;SDS011;57495;49.922;7.966;2024-01-06T03:09:44;7.63;;;1.30;;
70132;SDS011;57495;49.922;7.966;2024-01-06T03:11:47;4.63;;;1.10;;
70132;SDS011;57495;49.922;7.966;2024-01-06T03:13:48;5.80;;;1.10;;
70132;SDS011;57495;49.922;7.966;2024-01-06T03:15:50;5.22;;;1.15;;
70132;SDS011;57495;49.922;7.966;2024-01-06T03:17:51;4.78;;;1.10;;
70132;SDS011;57495;49.922;7.966;2024-01-06T03:19:52;6.00;;;1.47;;
70132;SDS011;57495;49.922;7.966;2024-01-06T03:21:53;4.50;;;1.05;;
70132;SDS011;57495;49.922;7.966;2024-01-06T03:23:55;6.32;;;1.60;;
70132;SDS011;57495;49.922;7.966;2024-01-06T03:25:55;4.63;;;1.40;;
70132;SDS011;57495;49.922;7.966;2024-01-06T03:27:58;6.10;;;1.25;;
70132;SDS011;57495;49.922;7.966;2024-01-06T03:29:58;5.38;;;1.35;;
70132;SDS011;57495;49.922;7.966;2024-01-06T03:32:00;6.85;;;1.30;;
70132;SDS011;57495;49.922;7.966;2024-01-06T03:34:01;6.70;;;1.53;;
70132;SDS011;57495;49.922;7.966;2024-01-06T03:36:04;5.47;;;1.20;;
70132;SDS011;57495;49.922;7.966;2024-01-06T03:38:06;4.72;;;1.58;;
70132;SDS011;57495;49.922;7.966;2024-01-06T03:40:08;7.00;;;1.85;;
70132;SDS011;57495;49.922;7.966;2024-01-06T03:42:09;10.15;;;1.75;;
70132;SDS011;57495;49.922;7.966;2024-01-06T03:44:11;7.17;;;1.50;;
70132;SDS011;57495;49.922;7.966;2024-01-06T03:46:12;7.50;;;1.60;;
70132;SDS011;57495;49.922;7.966;2024-01-06T03:48:13;4.80;;;1.50;;
70132;SDS011;57495;49.922;7.966;2024-01-06T03:50:15;6.50;;;1.48;;
70132;SDS011;57495;49.922;7.966;2024-01-06T03:52:16;5.72;;;1.25;;
70132;SDS011;57495;49.922;7.966;2024-01-06T03:54:17;5.93;;;1.40;;
70132;SDS011;57495;49.922;7.966;2024-01-06T03:56:19;8.98;;;1.23;;
70132;SDS011;57495;49.922;7.966;2024-01-06T03:58:20;5.03;;;1.05;;
70132;SDS011;57495;49.922;7.966;2024-01-06T04:00:23;4.78;;;1.30;;
70132;SDS011;57495;49.922;7.966;2024-01-06T04:02:25;7.90;;;1.45;;
70132;SDS011;57495;49.922;7.966;2024-01-06T04:04:27;4.80;;;1.13;;
70132;SDS011;57495;49.922;7.966;2024-01-06T04:06:29;4.60;;;1.48;;
70132;SDS011;57495;49.922;7.966;2024-01-06T04:08:31;5.57;;;1.27;;
70132;SDS011;57495;49.922;7.966;2024-01-06T04:10:32;5.93;;;1.50;;
70132;SDS011;57495;49.922;7.966;2024-01-06T04:12:33;5.75;;;1.40;;
70132;SDS011;57495;49.922;7.966;2024-01-06T04:14:35;5.85;;;1.20;;
70132;SDS011;57495;49.922;7.966;2024-01-06T04:16:37;9.57;;;1.65;;
70132;SDS011;57495;49.922;7.966;2024-01-06T04:18:39;5.53;;;1.58;;
70132;SDS011;57495;49.922;7.966;2024-01-06T04:20:40;6.18;;;1.42;;
70132;SDS011;57495;49.922;7.966;2024-01-06T04:22:43;4.78;;;1.33;;
70132;SDS011;57495;49.922;7.966;2024-01-06T04:24:44;6.38;;;1.55;;
70132;SDS011;57495;49.922;7.966;2024-01-06T04:26:46;7.13;;;1.58;;
70132;SDS011;57495;49.922;7.966;2024-01-06T04:28:48;5.15;;;1.27;;
70132;SDS011;57495;49.922;7.966;2024-01-06T04:30:50;8.05;;;1.05;;
70132;SDS011;57495;49.922;7.966;2024-01-06T04:32:53;4.03;;;1.20;;
70132;SDS011;57495;49.922;7.966;2024-01-06T04:34:56;6.32;;;1.10;;
70132;SDS011;57495;49.922;7.966;2024-01-06T04:36:57;5.68;;;1.30;;
70132;SDS011;57495;49.922;7.966;2024-01-06T04:38:59;4.22;;;1.13;;
70132;SDS011;57495;49.922;7.966;2024-01-06T04:41:00;5.90;;;1.17;;
70132;SDS011;57495;49.922;7.966;2024-01-06T04:43:02;3.90;;;1.00;;
70132;SDS011;57495;49.922;7.966;2024-01-06T04:45:04;5.63;;;1.10;;
70132;SDS011;57495;49.922;7.966;2024-01-06T04:47:06;10.18;;;1.90;;
70132;SDS011;57495;49.922;7.966;2024-01-06T04:49:09;4.07;;;1.17;;
70132;SDS011;57495;49.922;7.966;2024-01-06T04:51:11;4.30;;;1.13;;
70132;SDS011;57495;49.922;7.966;2024-01-06T04:53:13;6.05;;;1.50;;
70132;SDS011;57495;49.922;7.966;2024-01-06T04:55:14;10.13;;;1.87;;
70132;SDS011;57495;49.922;7.966;2024-01-06T04:57:15;6.05;;;1.40;;
70132;SDS011;57495;49.922;7.966;2024-01-06T04:59:16;5.50;;;1.08;;
70132;SDS011;57495;49.922;7.966;2024-01-06T05:01:18;4.55;;;1.10;;
70132;SDS011;57495;49.922;7.966;2024-01-06T05:03:19;5.93;;;1.75;;
70132;SDS011;57495;49.922;7.966;2024-01-06T05:05:22;5.07;;;0.93;;
70132;SDS011;57495;49.922;7.966;2024-01-06T05:07:22;3.13;;;0.88;;
70132;SDS011;57495;49.922;7.966;2024-01-06T05:09:24;4.82;;;0.98;;
70132;SDS011;57495;49.922;7.966;2024-01-06T05:11:26;4.93;;;1.20;;
70132;SDS011;57495;49.922;7.966;2024-01-06T05:13:27;8.93;;;1.60;;
70132;SDS011;57495;49.922;7.966;2024-01-06T05:15:29;6.10;;;1.07;;
70132;SDS011;57495;49.922;7.966;2024-01-06T05:17:30;4.53;;;1.00;;
70132;SDS011;57495;49.922;7.966;2024-01-06T05:19:31;5.13;;;1.10;;
70132;SDS011;57495;49.922;7.966;2024-01-06T05:21:35;5.97;;;1.20;;
70132;SDS011;57495;49.922;7.966;2024-01-06T05:23:36;5.93;;;1.10;;
70132;SDS011;57495;49.922;7.966;2024-01-06T05:25:38;4.47;;;1.00;;
70132;SDS011;57495;49.922;7.966;2024-01-06T05:27:39;3.40;;;0.80;;
70132;SDS011;57495;49.922;7.966;2024-01-06T05:29:40;3.83;;;0.95;;
70132;SDS011;57495;49.922;7.966;2024-01-06T05:31:42;3.90;;;0.90;;
70132;SDS011;57495;49.922;7.966;2024-01-06T05:33:43;5.40;;;1.23;;
70132;SDS011;57495;49.922;7.966;2024-01-06T05:35:45;5.57;;;0.90;;
70132;SDS011;57495;49.922;7.966;2024-01-06T05:37:48;4.05;;;1.00;;
70132;SDS011;57495;49.922;7.966;2024-01-06T05:39:48;4.10;;;0.90;;
70132;SDS011;57495;49.922;7.966;2024-01-06T05:41:49;5.30;;;1.13;;
70132;SDS011;57495;49.922;7.966;2024-01-06T05:43:51;5.07;;;1.20;;
70132;SDS011;57495;49.922;7.966;2024-01-06T05:45:52;5.67;;;1.10;;
70132;SDS011;57495;49.922;7.966;2024-01-06T05:47:54;5.03;;;1.25;;
70132;SDS011;57495;49.922;7.966;2024-01-06T05:49:55;5.68;;;1.40;;
70132;SDS011;57495;49.922;7.966;2024-01-06T05:51:55;5.53;;;1.37;;
70132;SDS011;57495;49.922;7.966;2024-01-06T05:53:59;4.60;;;1.20;;
70132;SDS011;57495;49.922;7.966;2024-01-06T05:56:00;3.75;;;0.88;;
70132;SDS011;57495;49.922;7.966;2024-01-06T05:58:01;5.60;;;1.40;;
70132;SDS011;57495;49.922;7.966;2024-01-06T06:00:02;5.22;;;1.50;;
70132;SDS011;57495;49.922;7.966;2024-01-06T06:02:04;4.30;;;1.00;;
70132;SDS011;57495;49.922;7.966;2024-01-06T06:04:06;9.13;;;1.10;;
70132;SDS011;57495;49.922;7.966;2024-01-06T06:06:06;7.07;;;1.20;;
70132;SDS011;57495;49.922;7.966;2024-01-06T06:08:08;4.03;;;1.30;;
70132;SDS011;57495;49.922;7.966;2024-01-06T06:10:11;7.32;;;1.42;;
70132;SDS011;57495;49.922;7.966;2024-01-06T06:12:12;4.68;;;1.25;;
70132;SDS011;57495;49.922;7.966;2024-01-06T06:14:13;5.67;;;1.37;;
70132;SDS011;57495;49.922;7.966;2024-01-06T06:16:14;6.53;;;1.95;;
70132;SDS011;57495;49.922;7.966;2024-01-06T06:18:16;4.90;;;1.85;;
70132;SDS011;57495;49.922;7.966;2024-01-06T06:20:17;6.95;;;1.42;;
70132;SDS011;57495;49.922;7.966;2024-01-06T06:22:19;4.53;;;1.60;;
70132;SDS011;57495;49.922;7.966;2024-01-06T06:24:22;5.45;;;1.98;;
70132;SDS011;57495;49.922;7.966;2024-01-06T06:26:25;6.43;;;2.00;;
70132;SDS011;57495;49.922;7.966;2024-01-06T06:28:28;5.45;;;1.80;;
70132;SDS011;57495;49.922;7.966;2024-01-06T06:30:29;5.28;;;1.73;;
70132;SDS011;57495;49.922;7.966;2024-01-06T06:32:31;6.90;;;1.63;;
70132;SDS011;57495;49.922;7.966;2024-01-06T06:34:32;9.25;;;1.60;;
70132;SDS011;57495;49.922;7.966;2024-01-06T06:36:33;7.70;;;1.80;;
70132;SDS011;57495;49.922;7.966;2024-01-06T06:38:35;4.82;;;1.25;;
70132;SDS011;57495;49.922;7.966;2024-01-06T06:40:36;11.20;;;2.58;;
70132;SDS011;57495;49.922;7.966;2024-01-06T06:42:38;4.20;;;1.10;;
70132;SDS011;57495;49.922;7.966;2024-01-06T06:44:39;7.20;;;1.85;;
70132;SDS011;57495;49.922;7.966;2024-01-06T06:46:41;6.53;;;1.65;;
70132;SDS011;57495;49.922;7.966;2024-01-06T06:48:42;4.57;;;1.50;;
70132;SDS011;57495;49.922;7.966;2024-01-06T06:50:43;7.50;;;1.70;;
70132;SDS011;57495;49.922;7.966;2024-01-06T06:52:45;5.47;;;1.38;;
70132;SDS011;57495;49.922;7.966;2024-01-06T06:54:47;7.57;;;1.80;;
70132;SDS011;57495;49.922;7.966;2024-01-06T06:56:49;7.20;;;1.77;;
70132;SDS011;57495;49.922;7.966;2024-01-06T06:58:52;8.00;;;1.60;;
70132;SDS011;57495;49.922;7.966;2024-01-06T07:00:53;6.35;;;1.63;;
70132;SDS011;57495;49.922;7.966;2024-01-06T07:02:55;4.97;;;1.10;;
70132;SDS011;57495;49.922;7.966;2024-01-06T07:04:55;4.43;;;1.50;;
70132;SDS011;57495;49.922;7.966;2024-01-06T07:06:57;5.88;;;1.75;;
70132;SDS011;57495;49.922;7.966;2024-01-06T07:08:58;5.28;;;1.45;;
70132;SDS011;57495;49.922;7.966;2024-01-06T07:11:00;7.45;;;1.80;;
70132;SDS011;57495;49.922;7.966;2024-01-06T07:13:01;5.00;;;1.25;;
70132;SDS011;57495;49.922;7.966;2024-01-06T07:15:04;6.03;;;1.23;;
70132;SDS011;57495;49.922;7.966;2024-01-06T07:17:05;6.07;;;1.63;;
70132;SDS011;57495;49.922;7.966;2024-01-06T07:19:09;5.63;;;1.52;;
70132;SDS011;57495;49.922;7.966;2024-01-06T07:21:11;5.82;;;1.20;;
70132;SDS011;57495;49.922;7.966;2024-01-06T07:23:13;5.57;;;1.50;;
70132;SDS011;57495;49.922;7.966;2024-01-06T07:25:14;4.88;;;1.73;;
70132;SDS011;57495;49.922;7.966;2024-01-06T07:27:16;5.07;;;1.50;;
70132;SDS011;57495;49.922;7.966;2024-01-06T07:29:17;3.92;;;1.50;;
70132;SDS011;57495;49.922;7.966;2024-01-06T07:31:19;5.77;;;1.70;;
70132;SDS011;57495;49.922;7.966;2024-01-06T07:33:20;6.47;;;1.40;;
70132;SDS011;57495;49.922;7.966;2024-01-06T07:35:22;4.85;;;1.33;;
70132;SDS011;57495;49.922;7.966;2024-01-06T07:37:23;4.85;;;1.60;;
70132;SDS011;57495;49.922;7.966;2024-01-06T07:39:24;5.13;;;1.53;;
70132;SDS011;57495;49.922;7.966;2024-01-06T07:41:25;5.07;;;1.52;;
70132;SDS011;57495;49.922;7.966;2024-01-06T07:43:27;6.50;;;1.67;;
70132;SDS011;57495;49.922;7.966;2024-01-06T07:45:28;6.55;;;1.55;;
70132;SDS011;57495;49.922;7.966;2024-01-06T07:47:31;5.43;;;1.40;;
70132;SDS011;57495;49.922;7.966;2024-01-06T07:49:32;5.10;;;1.85;;
70132;SDS011;57495;49.922;7.966;2024-01-06T07:51:33;5.80;;;1.73;;
70132;SDS011;57495;49.922;7.966;2024-01-06T07:53:35;4.68;;;1.67;;
70132;SDS011;57495;49.922;7.966;2024-01-06T07:55:36;4.85;;;1.40;;
70132;SDS011;57495;49.922;7.966;2024-01-06T07:57:38;4.50;;;1.77;;
70132;SDS011;57495;49.922;7.966;2024-01-06T07:59:39;5.28;;;1.63;;
70132;SDS011;57495;49.922;7.966;2024-01-06T08:01:41;5.18;;;1.80;;
70132;SDS011;57495;49.922;7.966;2024-01-06T08:03:44;5.32;;;1.88;;
70132;SDS011;57495;49.922;7.966;2024-01-06T08:05:45;5.55;;;1.50;;
70132;SDS011;57495;49.922;7.966;2024-01-06T08:07:47;5.65;;;2.13;;
70132;SDS011;57495;49.922;7.966;2024-01-06T08:09:49;6.13;;;1.85;;
70132;SDS011;57495;49.922;7.966;2024-01-06T08:11:50;4.95;;;2.00;;
70132;SDS011;57495;49.922;7.966;2024-01-06T08:13:52;4.97;;;1.50;;
70132;SDS011;57495;49.922;7.966;2024-01-06T08:15:54;6.95;;;1.75;;
70132;SDS011;57495;49.922;7.966;2024-01-06T08:17:55;6.47;;;1.80;;
70132;SDS011;57495;49.922;7.966;2024-01-06T08:19:58;6.22;;;1.90;;
70132;SDS011;57495;49.922;7.966;2024-01-06T08:21:59;6.20;;;1.80;;
70132;SDS011;57495;49.922;7.966;2024-01-06T08:24:00;5.35;;;1.67;;
70132;SDS011;57495;49.922;7.966;2024-01-06T08:26:02;4.75;;;1.55;;
70132;SDS011;57495;49.922;7.966;2024-01-06T08:28:04;4.75;;;2.00;;
70132;SDS011;57495;49.922;7.966;2024-01-06T08:30:06;5.97;;;1.80;;
70132;SDS011;57495;49.922;7.966;2024-01-06T08:32:08;6.55;;;1.83;;
70132;SDS011;57495;49.922;7.966;2024-01-06T08:34:11;6.63;;;2.00;;
70132;SDS011;57495;49.922;7.966;2024-01-06T08:36:14;6.03;;;2.10;;
70132;SDS011;57495;49.922;7.966;2024-01-06T08:38:15;4.88;;;1.80;;
70132;SDS011;57495;49.922;7.966;2024-01-06T08:40:16;6.13;;;2.57;;
70132;SDS011;57495;49.922;7.966;2024-01-06T08:42:17;5.97;;;2.15;;
70132;SDS011;57495;49.922;7.966;2024-01-06T08:44:19;6.25;;;2.00;;
70132;SDS011;57495;49.922;7.966;2024-01-06T08:46:20;6.82;;;2.50;;
70132;SDS011;57495;49.922;7.966;2024-01-06T08:48:22;5.10;;;2.08;;
70132;SDS011;57495;49.922;7.966;2024-01-06T08:50:23;8.98;;;2.35;;
70132;SDS011;57495;49.922;7.966;2024-01-06T08:52:26;5.72;;;2.05;;
70132;SDS011;57495;49.922;7.966;2024-01-06T08:54:27;7.30;;;2.00;;
70132;SDS011;57495;49.922;7.966;2024-01-06T08:56:29;6.25;;;2.17;;
70132;SDS011;57495;49.922;7.966;2024-01-06T08:58:30;5.93;;;2.38;;
70132;SDS011;57495;49.922;7.966;2024-01-06T09:00:31;11.05;;;2.70;;
70132;SDS011;57495;49.922;7.966;2024-01-06T09:02:33;7.85;;;2.70;;
70132;SDS011;57495;49.922;7.966;2024-01-06T09:04:34;5.05;;;2.25;;
70132;SDS011;57495;49.922;7.966;2024-01-06T09:06:35;7.05;;;2.67;;
70132;SDS011;57495;49.922;7.966;2024-01-06T09:08:38;6.80;;;2.63;;
70132;SDS011;57495;49.922;7.966;2024-01-06T09:10:40;6.32;;;2.25;;
70132;SDS011;57495;49.922;7.966;2024-01-06T09:12:43;6.53;;;2.28;;
70132;SDS011;57495;49.922;7.966;2024-01-06T09:14:44;6.47;;;2.53;;
70132;SDS011;57495;49.922;7.966;2024-01-06T09:16:45;5.65;;;2.35;;
70132;SDS011;57495;49.922;7.966;2024-01-06T09:18:47;7.22;;;2.28;;
70132;SDS011;57495;49.922;7.966;2024-01-06T09:20:48;9.00;;;2.80;;
70132;SDS011;57495;49.922;7.966;2024-01-06T09:22:49;6.05;;;2.45;;
70132;SDS011;57495;49.922;7.966;2024-01-06T09:24:53;6.65;;;2.40;;
70132;SDS011;57495;49.922;7.966;2024-01-06T09:26:54;5.72;;;2.30;;
70132;SDS011;57495;49.922;7.966;2024-01-06T09:28:55;6.13;;;2.67;;
70132;SDS011;57495;49.922;7.966;2024-01-06T09:30:56;7.38;;;2.97;;
70132;SDS011;57495;49.922;7.966;2024-01-06T09:32:57;8.23;;;2.80;;
70132;SDS011;57495;49.922;7.966;2024-01-06T09:34:59;6.43;;;2.65;;
70132;SDS011;57495;49.922;7.966;2024-01-06T09:37:00;6.00;;;2.45;;
70132;SDS011;57495;49.922;7.966;2024-01-06T09:39:01;7.47;;;2.78;;
70132;SDS011;57495;49.922;7.966;2024-01-06T09:41:03;6.40;;;2.50;;
70132;SDS011;57495;49.922;7.966;2024-01-06T09:43:05;6.77;;;2.77;;
70132;SDS011;57495;49.922;7.966;2024-01-06T09:45:07;5.85;;;2.40;;
70132;SDS011;57495;49.922;7.966;2024-01-06T09:47:09;6.05;;;2.28;;
70132;SDS011;57495;49.922;7.966;2024-01-06T09:49:13;7.43;;;2.70;;
70132;SDS011;57495;49.922;7.966;2024-01-06T09:51:15;8.00;;;2.88;;
70132;SDS011;57495;49.922;7.966;2024-01-06T09:53:16;5.77;;;2.60;;
70132;SDS011;57495;49.922;7.966;2024-01-06T09:55:21;7.78;;;2.50;;
70132;SDS011;57495;49.922;7.966;2024-01-06T09:57:26;6.22;;;2.50;;
70132;SDS011;57495;49.922;7.966;2024-01-06T09:59:28;5.32;;;2.30;;
70132;SDS011;57495;49.922;7.966;2024-01-06T10:01:30;5.72;;;2.28;;
70132;SDS011;57495;49.922;7.966;2024-01-06T10:03:32;7.53;;;2.30;;
70132;SDS011;57495;49.922;7.966;2024-01-06T10:05:34;7.45;;;2.47;;
70132;SDS011;57495;49.922;7.966;2024-01-06T10:07:36;4.95;;;2.00;;
70132;SDS011;57495;49.922;7.966;2024-01-06T10:09:36;6.00;;;2.30;;
70132;SDS011;57495;49.922;7.966;2024-01-06T10:11:38;6.28;;;2.40;;
70132;SDS011;57495;49.922;7.966;2024-01-06T10:13:42;8.25;;;2.60;;
70132;SDS011;57495;49.922;7.966;2024-01-06T10:15:44;5.60;;;2.38;;
70132;SDS011;57495;49.922;7.966;2024-01-06T10:17:46;4.50;;;2.23;;
70132;SDS011;57495;49.922;7.966;2024-01-06T10:19:47;6.53;;;2.75;;
70132;SDS011;57495;49.922;7.966;2024-01-06T10:21:49;5.95;;;2.53;;
70132;SDS011;57495;49.922;7.966;2024-01-06T10:23:51;5.97;;;2.38;;
70132;SDS011;57495;49.922;7.966;2024-01-06T10:25:54;6.38;;;2.50;;
70132;SDS011;57495;49.922;7.966;2024-01-06T10:27:56;5.83;;;2.50;;
70132;SDS011;57495;49.922;7.966;2024-01-06T10:29:58;5.72;;;2.25;;
70132;SDS011;57495;49.922;7.966;2024-01-06T10:31:59;5.63;;;2.07;;
70132;SDS011;57495;49.922;7.966;2024-01-06T10:34:01;9.13;;;2.47;;
70132;SDS011;57495;49.922;7.966;2024-01-06T10:36:03;5.53;;;2.50;;
70132;SDS011;57495;49.922;7.966;2024-01-06T10:38:06;6.70;;;2.30;;
70132;SDS011;57495;49.922;7.966;2024-01-06T10:40:08;7.13;;;2.60;;
70132;SDS011;57495;49.922;7.966;2024-01-06T10:42:11;8.03;;;2.53;;
70132;SDS011;57495;49.922;7.966;2024-01-06T10:44:14;4.90;;;2.03;;
70132;SDS011;57495;49.922;7.966;2024-01-06T10:46:17;6.85;;;2.40;;
70132;SDS011;57495;49.922;7.966;2024-01-06T10:48:20;6.05;;;2.20;;
70132;SDS011;57495;49.922;7.966;2024-01-06T10:50:23;6.25;;;2.40;;
70132;SDS011;57495;49.922;7.966;2024-01-06T10:52:25;9.17;;;2.37;;
70132;SDS011;57495;49.922;7.966;2024-01-06T10:54:27;7.75;;;2.03;;
70132;SDS011;57495;49.922;7.966;2024-01-06T10:56:29;5.68;;;2.75;;
70132;SDS011;57495;49.922;7.966;2024-01-06T10:58:31;5.85;;;2.50;;
70132;SDS011;57495;49.922;7.966;2024-01-06T11:00:33;5.32;;;2.33;;
70132;SDS011;57495;49.922;7.966;2024-01-06T11:02:36;5.77;;;2.33;;
70132;SDS011;57495;49.922;7.966;2024-01-06T11:04:38;5.78;;;2.22;;
70132;SDS011;57495;49.922;7.966;2024-01-06T11:06:41;6.57;;;2.47;;
70132;SDS011;57495;49.922;7.966;2024-01-06T11:08:46;6.38;;;2.10;;
70132;SDS011;57495;49.922;7.966;2024-01-06T11:10:50;7.05;;;2.08;;
70132;SDS011;57495;49.922;7.966;2024-01-06T11:13:05;5.80;;;2.10;;
70132;SDS011;57495;49.922;7.966;2024-01-06T11:15:10;5.90;;;1.85;;
70132;SDS011;57495;49.922;7.966;2024-01-06T11:17:19;6.47;;;1.98;;
70132;SDS011;57495;49.922;7.966;2024-01-06T11:20:04;4.88;;;1.73;;
70132;SDS011;57495;49.922;7.966;2024-01-06T11:22:17;5.57;;;1.40;;
70132;SDS011;57495;49.922;7.966;2024-01-06T11:24:19;5.23;;;2.10;;
70132;SDS011;57495;49.922;7.966;2024-01-06T11:26:21;6.00;;;2.08;;
70132;SDS011;57495;49.922;7.966;2024-01-06T11:28:23;4.70;;;1.80;;
70132;SDS011;57495;49.922;7.966;2024-01-06T11:30:26;4.60;;;2.08;;
70132;SDS011;57495;49.922;7.966;2024-01-06T11:32:29;5.72;;;2.03;;
70132;SDS011;57495;49.922;7.966;2024-01-06T11:34:31;6.17;;;2.40;;
70132;SDS011;57495;49.922;7.966;2024-01-06T11:36:38;6.47;;;2.10;;
70132;SDS011;57495;49.922;7.966;2024-01-06T11:38:39;6.93;;;2.30;;
70132;SDS011;57495;49.922;7.966;2024-01-06T11:40:41;5.95;;;2.10;;
70132;SDS011;57495;49.922;7.966;2024-01-06T11:42:44;6.18;;;2.13;;
70132;SDS011;57495;49.922;7.966;2024-01-06T11:44:49;5.37;;;1.80;;
70132;SDS011;57495;49.922;7.966;2024-01-06T11:46:51;5.50;;;1.80;;
70132;SDS011;57495;49.922;7.966;2024-01-06T11:48:57;5.43;;;2.00;;
70132;SDS011;57495;49.922;7.966;2024-01-06T11:51:01;6.25;;;2.30;;
70132;SDS011;57495;49.922;7.966;2024-01-06T11:53:04;5.93;;;2.42;;
70132;SDS011;57495;49.922;7.966;2024-01-06T11:55:07;5.50;;;1.97;;
70132;SDS011;57495;49.922;7.966;2024-01-06T11:57:09;5.13;;;2.00;;
70132;SDS011;57495;49.922;7.966;2024-01-06T11:59:10;6.38;;;2.45;;
70132;SDS011;57495;49.922;7.966;2024-01-06T12:01:12;5.70;;;2.25;;
70132;SDS011;57495;49.922;7.966;2024-01-06T12:03:15;6.53;;;2.30;;
70132;SDS011;57495;49.922;7.966;2024-01-06T12:05:18;5.63;;;2.30;;
70132;SDS011;57495;49.922;7.966;2024-01-06T12:07:21;6.60;;;2.47;;
70132;SDS011;57495;49.922;7.966;2024-01-06T12:09:22;6.78;;;2.55;;
70132;SDS011;57495;49.922;7.966;2024-01-06T12:11:25;5.47;;;2.05;;
70132;SDS011;57495;49.922;7.966;2024-01-06T12:13:27;7.03;;;2.30;;
70132;SDS011;57495;49.922;7.966;2024-01-06T12:15:29;6.70;;;2.40;;